createdAt,value
2019-04-30T00:02:12.105Z,73.80
2019-04-30T00:04:45.226Z,75.63
2019-04-30T00:07:17.466Z,73.72
2019-04-30T00:09:45.005Z,81.55
2019-04-30T00:12:15.665Z,82.60
2019-04-30T00:14:44.944Z,74.30
2019-04-30T00:17:17.190Z,59.27
2019-04-30T00:19:45.913Z,77.23
2019-04-30T00:22:15.853Z,68.90
2019-04-30T00:24:49.666Z,70.05
2019-04-30T00:27:15.229Z,75.73
2019-04-30T00:29:45.773Z,66.70
2019-04-30T00:32:15.956Z,77.60
2019-04-30T00:34:45.596Z,73.47
2019-04-30T00:37:18.685Z,82.77
2019-04-30T00:39:51.131Z,81.97
2019-04-30T00:42:18.718Z,61.57
2019-04-30T00:44:46.240Z,64.75
2019-04-30T00:47:15.403Z,58.95
2019-04-30T00:49:47.141Z,61.27
2019-04-30T00:52:15.576Z,74.70
2019-04-30T00:54:45.207Z,74.63
2019-04-30T00:57:15.152Z,68.17
2019-04-30T00:59:47.891Z,69.80
2019-04-30T01:02:32.209Z,68.50
2019-04-30T01:05:05.337Z,68.87
2019-04-30T01:07:32.777Z,70.63
2019-04-30T01:10:01.570Z,70.70
2019-04-30T01:12:35.838Z,65.30
2019-04-30T01:15:01.648Z,63.23
2019-04-30T01:17:31.188Z,64.40
2019-04-30T01:20:00.040Z,67.50
2019-04-30T01:22:32.777Z,59.93
2019-04-30T01:25:01.308Z,70.08
2019-04-30T01:27:30.649Z,66.60
2019-04-30T01:29:59.645Z,66.30
2019-04-30T01:32:28.632Z,58.27
2019-04-30T01:34:58.897Z,72.63
2019-04-30T01:37:31.352Z,61.00
2019-04-30T01:39:58.920Z,72.33
2019-04-30T01:42:28.770Z,61.70
2019-04-30T01:44:58.965Z,61.53
2019-04-30T01:47:29.527Z,63.93
2019-04-30T01:50:03.030Z,71.73
2019-04-30T01:52:49.366Z,60.12
2019-04-30T01:55:19.970Z,56.87
2019-04-30T01:57:59.137Z,58.53
2019-04-30T02:00:32.287Z,52.57
2019-04-30T02:03:01.025Z,52.10
2019-04-30T02:05:29.829Z,60.23
2019-04-30T02:07:58.647Z,55.97
2019-04-30T02:10:28.516Z,47.07
2019-04-30T02:12:59.073Z,56.10
2019-04-30T02:15:29.182Z,40.60
2019-04-30T02:17:58.886Z,37.03
2019-04-30T02:20:28.758Z,42.27
2019-04-30T02:22:58.891Z,39.60
2019-04-30T02:25:29.532Z,38.63
2019-04-30T02:27:59.100Z,43.33
2019-04-30T02:30:30.785Z,45.83
2019-04-30T02:33:00.543Z,41.02
2019-04-30T02:35:57.053Z,40.67
2019-04-30T02:38:31.177Z,42.27
2019-04-30T02:41:01.023Z,52.07
2019-04-30T02:43:31.423Z,44.77
2019-04-30T02:46:01.191Z,52.57
2019-04-30T02:48:31.490Z,50.77
2019-04-30T02:51:03.380Z,58.00
2019-04-30T02:54:13.950Z,54.60
2019-04-30T02:56:44.513Z,49.33
2019-04-30T02:59:13.255Z,53.53
2019-04-30T03:01:42.260Z,50.12
2019-04-30T03:04:11.368Z,52.83
2019-04-30T03:06:40.561Z,45.73
2019-04-30T03:09:10.996Z,47.43
2019-04-30T03:11:40.728Z,50.70
2019-04-30T03:14:30.057Z,50.15
2019-04-30T03:17:12.773Z,58.93
2019-04-30T03:20:05.208Z,50.70
2019-04-30T03:22:33.949Z,46.00
2019-04-30T03:25:02.947Z,42.75
2019-04-30T03:27:32.573Z,47.10
2019-04-30T03:30:01.394Z,48.90
2019-04-30T03:32:31.585Z,41.67
2019-04-30T03:35:03.053Z,37.60
2019-04-30T03:37:31.149Z,40.03
2019-04-30T03:40:00.639Z,34.47
2019-04-30T03:42:29.627Z,34.97
2019-04-30T03:44:59.289Z,42.08
2019-04-30T03:47:30.074Z,44.77
2019-04-30T03:50:00.122Z,28.87
2019-04-30T03:52:29.290Z,42.47
2019-04-30T03:54:59.658Z,40.70
2019-04-30T03:57:30.308Z,41.47
2019-04-30T03:59:59.501Z,40.70
2019-04-30T04:02:40.565Z,45.17
2019-04-30T04:05:24.441Z,39.27
2019-04-30T04:07:59.890Z,36.15
2019-04-30T04:10:43.636Z,38.13
2019-04-30T04:13:12.361Z,40.07
2019-04-30T04:15:41.510Z,32.63
2019-04-30T04:18:10.793Z,31.53
2019-04-30T04:20:42.885Z,29.17
2019-04-30T04:23:10.310Z,24.87
2019-04-30T04:25:39.990Z,37.37
2019-04-30T04:28:10.080Z,25.37
2019-04-30T04:30:39.215Z,28.20
2019-04-30T04:33:10.194Z,25.23
2019-04-30T04:35:39.797Z,27.37
2019-04-30T04:38:12.307Z,27.13
2019-04-30T04:40:40.058Z,35.53
2019-04-30T04:43:10.369Z,26.50
2019-04-30T04:45:40.479Z,30.23
2019-04-30T04:48:10.196Z,26.20
2019-04-30T04:50:40.048Z,38.40
2019-04-30T04:53:11.415Z,24.73
2019-04-30T04:55:40.042Z,41.03
2019-04-30T04:58:09.727Z,36.77
2019-04-30T05:00:39.470Z,42.90
2019-04-30T05:03:20.250Z,42.87
2019-04-30T05:05:49.924Z,38.17
2019-04-30T05:08:19.298Z,31.63
2019-04-30T05:10:49.490Z,41.33
2019-04-30T05:13:19.243Z,36.63
2019-04-30T05:15:51.256Z,48.37
2019-04-30T05:18:19.533Z,49.50
2019-04-30T05:20:49.062Z,42.80
2019-04-30T05:23:19.518Z,45.10
2019-04-30T05:25:49.081Z,39.63
2019-04-30T05:28:18.870Z,36.93
2019-04-30T05:30:49.415Z,33.67
2019-04-30T05:33:18.625Z,34.97
2019-04-30T05:35:49.468Z,34.60
2019-04-30T05:38:18.966Z,28.90
2019-04-30T05:40:49.601Z,30.80
2019-04-30T05:43:19.179Z,32.50
2019-04-30T05:45:49.208Z,30.27
2019-04-30T05:48:18.583Z,28.60
2019-04-30T05:50:51.493Z,32.30
2019-04-30T05:53:19.066Z,31.63
2019-04-30T05:55:49.406Z,27.90
2019-04-30T05:58:19.723Z,36.13
2019-04-30T06:00:49.978Z,32.23
2019-04-30T06:03:27.555Z,32.67
2019-04-30T06:05:49.553Z,35.27
2019-04-30T06:08:20.442Z,37.13
2019-04-30T06:10:54.065Z,39.20
2019-04-30T06:17:19.735Z,38.93
2019-04-30T06:19:48.812Z,34.53
2019-04-30T06:22:19.593Z,34.40
2019-04-30T06:24:49.529Z,38.40
2019-04-30T06:27:19.191Z,34.83
2019-04-30T06:29:48.971Z,35.37
2019-04-30T06:32:18.743Z,33.47
2019-04-30T06:34:49.760Z,27.20
2019-04-30T06:37:19.463Z,36.60
2019-04-30T06:39:50.023Z,36.10
2019-04-30T06:42:19.512Z,34.73
2019-04-30T06:44:49.936Z,36.33
2019-04-30T06:47:31.980Z,28.80
2019-04-30T06:49:50.944Z,29.70
2019-04-30T06:52:23.379Z,32.53
2019-04-30T06:54:50.456Z,31.80
2019-04-30T06:57:19.958Z,32.97
2019-04-30T06:59:51.209Z,23.67
2019-04-30T07:02:19.790Z,26.33
2019-04-30T07:04:49.313Z,27.63
2019-04-30T07:07:22.832Z,30.47
2019-04-30T07:10:01.876Z,29.35
2019-04-30T07:12:59.029Z,27.32
2019-04-30T07:15:29.625Z,27.70
2019-04-30T07:17:59.423Z,24.93
2019-04-30T07:20:29.136Z,27.20
2019-04-30T07:23:02.313Z,21.07
2019-04-30T07:25:29.389Z,26.47
2019-04-30T07:27:59.782Z,25.95
2019-04-30T07:30:30.999Z,29.47
2019-04-30T07:33:00.164Z,23.47
2019-04-30T07:35:29.323Z,27.03
2019-04-30T07:38:00.651Z,24.83
2019-04-30T07:40:29.335Z,23.62
2019-04-30T07:42:59.075Z,25.25
2019-04-30T07:45:29.484Z,21.30
2019-04-30T07:47:59.422Z,26.33
2019-04-30T07:50:31.217Z,24.67
2019-04-30T07:53:05.299Z,22.03
2019-04-30T07:55:29.635Z,21.43
2019-04-30T07:57:59.181Z,22.27
2019-04-30T08:00:30.979Z,20.48
2019-04-30T08:03:24.667Z,18.70
2019-04-30T08:05:55.610Z,21.27
2019-04-30T08:08:25.641Z,14.97
2019-04-30T08:10:55.165Z,16.60
2019-04-30T08:13:24.365Z,16.17
2019-04-30T08:15:53.473Z,12.65
2019-04-30T08:18:22.389Z,13.70
2019-04-30T08:20:51.200Z,18.90
2019-04-30T08:23:33.537Z,19.10
2019-04-30T08:25:50.545Z,18.17
2019-04-30T08:28:20.068Z,13.77
2019-04-30T08:30:49.086Z,15.23
2019-04-30T08:33:19.382Z,21.70
2019-04-30T08:35:49.954Z,18.03
2019-04-30T08:38:19.221Z,16.67
2019-04-30T08:40:55.959Z,16.60
2019-04-30T08:43:19.884Z,15.50
2019-04-30T08:45:49.388Z,17.80
2019-04-30T08:48:19.000Z,15.00
2019-04-30T08:50:49.423Z,18.70
2019-04-30T08:53:27.587Z,14.07
2019-04-30T08:55:49.415Z,16.10
2019-04-30T08:58:20.507Z,18.40
2019-04-30T09:00:49.018Z,15.20
2019-04-30T09:03:19.435Z,13.40
2019-04-30T09:06:11.239Z,15.17
2019-04-30T09:08:41.544Z,14.20
2019-04-30T09:11:22.380Z,13.83
2019-04-30T09:13:41.651Z,16.00
2019-04-30T09:16:10.365Z,13.60
2019-04-30T09:18:39.344Z,14.43
2019-04-30T09:21:08.964Z,13.67
2019-04-30T09:23:44.684Z,10.83
2019-04-30T09:26:08.843Z,11.93
2019-04-30T09:28:40.793Z,16.07
2019-04-30T09:31:08.789Z,14.90
2019-04-30T09:33:39.343Z,10.05
2019-04-30T09:36:09.203Z,12.25
2019-04-30T09:38:38.907Z,12.30
2019-04-30T09:41:09.324Z,10.20
2019-04-30T09:43:38.293Z,10.27
2019-04-30T09:46:18.745Z,12.35
2019-04-30T09:48:38.619Z,11.70
2019-04-30T09:51:10.276Z,12.83
2019-04-30T09:53:39.473Z,12.87
2019-04-30T09:56:09.604Z,14.97
2019-04-30T09:58:39.314Z,10.93
2019-04-30T10:01:09.469Z,11.30
2019-04-30T10:03:39.807Z,13.83
2019-04-30T10:06:09.584Z,14.00
2019-04-30T10:08:47.899Z,12.97
2019-04-30T10:11:18.321Z,13.72
2019-04-30T10:13:47.422Z,13.40
2019-04-30T10:16:35.264Z,15.90
2019-04-30T10:19:04.048Z,15.00
2019-04-30T10:21:32.866Z,18.48
2019-04-30T10:24:12.553Z,16.07
2019-04-30T10:26:32.202Z,13.80
2019-04-30T10:29:01.290Z,19.17
2019-04-30T10:31:30.062Z,13.65
2019-04-30T10:33:58.948Z,10.40
2019-04-30T10:36:29.515Z,15.70
2019-04-30T10:38:59.496Z,13.83
2019-04-30T10:41:29.709Z,17.30
2019-04-30T10:43:59.253Z,13.53
2019-04-30T10:46:27.985Z,17.27
2019-04-30T10:48:57.252Z,16.87
2019-04-30T10:51:28.725Z,17.07
2019-04-30T10:53:59.209Z,19.77
2019-04-30T10:56:29.118Z,17.27
2019-04-30T10:58:58.363Z,19.03
2019-04-30T11:01:29.180Z,20.33
2019-04-30T11:03:58.511Z,18.83
2019-04-30T11:06:28.856Z,21.40
2019-04-30T11:08:57.662Z,19.37
2019-04-30T11:11:28.304Z,21.35
2019-04-30T11:13:57.811Z,16.80
2019-04-30T11:16:26.593Z,16.93
2019-04-30T11:18:55.437Z,22.47
2019-04-30T11:21:24.669Z,19.93
2019-04-30T11:23:53.717Z,24.17
2019-04-30T11:26:23.246Z,23.20
2019-04-30T11:28:52.439Z,18.60
2019-04-30T11:31:45.767Z,22.33
2019-04-30T11:34:15.227Z,22.47
2019-04-30T11:36:44.017Z,23.53
2019-04-30T11:39:19.845Z,22.10
2019-04-30T11:41:49.152Z,21.63
2019-04-30T11:44:28.551Z,18.67
2019-04-30T11:47:30.857Z,20.83
2019-04-30T11:49:59.869Z,20.92
2019-04-30T11:52:28.861Z,21.63
2019-04-30T11:54:59.750Z,24.30
2019-04-30T11:57:29.776Z,27.70
2019-04-30T11:59:58.997Z,23.00
2019-04-30T12:02:35.963Z,21.97
2019-04-30T12:05:06.073Z,19.48
2019-04-30T12:08:06.512Z,23.57
2019-04-30T12:10:39.757Z,21.87
2019-04-30T12:13:24.243Z,21.93
2019-04-30T12:15:55.107Z,25.07
2019-04-30T12:18:24.226Z,25.77
2019-04-30T12:20:53.094Z,20.67
2019-04-30T12:23:21.901Z,27.87
2019-04-30T12:25:50.649Z,21.93
2019-04-30T12:28:19.592Z,21.60
2019-04-30T12:30:49.076Z,23.53
2019-04-30T12:33:19.148Z,21.20
2019-04-30T12:35:50.985Z,20.03
2019-04-30T12:38:19.256Z,22.90
2019-04-30T12:40:48.824Z,24.93
2019-04-30T12:43:17.545Z,22.77
2019-04-30T12:45:46.281Z,23.47
2019-04-30T12:48:39.674Z,22.70
2019-04-30T12:51:17.594Z,25.70
2019-04-30T12:53:51.813Z,20.67
2019-04-30T12:56:38.522Z,22.15
2019-04-30T12:59:07.437Z,22.13
2019-04-30T13:01:36.600Z,21.97
2019-04-30T13:04:05.589Z,25.73
2019-04-30T13:06:34.821Z,21.20
2019-04-30T13:09:10.316Z,23.10
2019-04-30T13:11:40.551Z,20.97
2019-04-30T13:14:10.550Z,20.67
2019-04-30T13:16:40.309Z,16.90
2019-04-30T13:19:09.369Z,18.33
2019-04-30T13:21:39.571Z,19.63
2019-04-30T13:24:08.664Z,18.30
2019-04-30T13:26:39.515Z,19.70
2019-04-30T13:29:13.387Z,22.73
2019-04-30T13:31:42.115Z,21.93
2019-04-30T13:34:30.115Z,21.80
2019-04-30T13:36:59.398Z,19.57
2019-04-30T13:39:48.097Z,21.65
2019-04-30T13:42:17.677Z,20.20
2019-04-30T13:44:42.981Z,20.62
2019-04-30T13:47:11.758Z,21.17
2019-04-30T13:49:40.557Z,23.80
2019-04-30T13:52:09.898Z,25.87
2019-04-30T13:54:38.717Z,33.13
2019-04-30T13:57:09.084Z,23.75
2019-04-30T13:59:38.234Z,25.33
2019-04-30T14:02:08.773Z,23.27
2019-04-30T14:04:50.285Z,19.20
2019-04-30T14:07:50.357Z,37.67
2019-04-30T14:10:19.569Z,22.70
2019-04-30T14:12:55.153Z,24.87
2019-04-30T14:15:24.216Z,23.30
2019-04-30T14:17:53.030Z,22.43
2019-04-30T14:20:22.160Z,25.80
2019-04-30T14:22:50.989Z,23.87
2019-04-30T14:25:19.708Z,22.98
2019-04-30T14:27:54.359Z,22.53
2019-04-30T14:30:20.364Z,23.27
2019-04-30T14:32:50.762Z,25.27
2019-04-30T14:35:19.648Z,24.27
2019-04-30T14:37:49.628Z,21.13
2019-04-30T14:40:20.444Z,24.63
2019-04-30T14:42:55.725Z,23.47
2019-04-30T14:45:30.518Z,24.90
2019-04-30T14:48:05.941Z,20.60
2019-04-30T14:50:35.796Z,25.30
2019-04-30T14:53:10.319Z,20.47
2019-04-30T14:56:08.500Z,23.87
2019-04-30T14:58:43.114Z,21.30
2019-04-30T15:01:30.050Z,22.33
2019-04-30T15:03:59.446Z,24.37
2019-04-30T15:06:28.477Z,22.55
2019-04-30T15:08:59.049Z,19.60
2019-04-30T15:11:28.849Z,23.23
2019-04-30T15:13:59.164Z,21.87
2019-04-30T15:16:28.103Z,25.97
2019-04-30T15:18:56.926Z,23.87
2019-04-30T15:21:26.006Z,24.03
2019-04-30T15:24:09.431Z,22.80
2019-04-30T15:26:41.223Z,28.83
2019-04-30T15:29:12.709Z,30.50
2019-04-30T15:31:42.556Z,24.13
2019-04-30T15:34:12.638Z,25.00
2019-04-30T15:36:41.770Z,23.53
2019-04-30T15:39:30.872Z,24.13
2019-04-30T15:42:00.242Z,24.18
2019-04-30T15:44:29.400Z,32.27
2019-04-30T15:47:00.360Z,32.67
2019-04-30T15:49:29.240Z,30.70
2019-04-30T15:51:58.379Z,43.07
2019-04-30T15:54:29.171Z,29.32
2019-04-30T15:57:00.259Z,49.10
2019-04-30T15:59:46.455Z,35.47
2019-04-30T16:02:52.949Z,34.97
2019-04-30T16:05:22.544Z,33.88
2019-04-30T16:08:10.279Z,43.73
2019-04-30T16:10:55.013Z,35.40
2019-04-30T16:13:25.674Z,32.00
2019-04-30T16:15:55.206Z,36.13
2019-04-30T16:18:26.128Z,28.23
2019-04-30T16:20:54.849Z,36.17
2019-04-30T16:23:23.636Z,31.83
2019-04-30T16:25:52.396Z,28.07
2019-04-30T16:28:21.469Z,29.67
2019-04-30T16:30:50.214Z,31.77
2019-04-30T16:33:19.449Z,34.97
2019-04-30T16:35:50.847Z,31.57
2019-04-30T16:38:20.921Z,32.27
2019-04-30T16:40:49.588Z,32.48
2019-04-30T16:43:18.620Z,29.87
2019-04-30T16:45:49.434Z,38.23
2019-04-30T16:48:19.406Z,33.37
2019-04-30T16:50:51.113Z,27.77
2019-04-30T16:53:18.900Z,33.47
2019-04-30T16:55:50.406Z,32.20
2019-04-30T16:58:19.597Z,32.90
2019-04-30T17:00:49.276Z,29.13
2019-04-30T17:03:31.316Z,28.40
2019-04-30T17:06:05.957Z,26.87
2019-04-30T17:08:45.574Z,30.10
2019-04-30T17:11:35.996Z,33.87
2019-04-30T17:14:06.920Z,34.00
2019-04-30T17:16:35.661Z,36.45
2019-04-30T17:19:04.391Z,51.80
2019-04-30T17:21:33.460Z,36.57
2019-04-30T17:24:02.537Z,37.63
2019-04-30T17:26:31.256Z,40.77
2019-04-30T17:28:59.993Z,41.63
2019-04-30T17:31:28.724Z,46.00
2019-04-30T17:33:57.465Z,44.50
2019-04-30T17:36:26.268Z,39.67
2019-04-30T17:38:54.997Z,46.03
2019-04-30T17:41:24.088Z,38.57
2019-04-30T17:43:52.881Z,48.38
2019-04-30T17:46:21.707Z,74.93
2019-04-30T17:48:50.423Z,121.30
2019-04-30T17:51:19.383Z,52.43
2019-04-30T17:54:16.452Z,43.33
2019-04-30T17:56:46.615Z,33.80
2019-04-30T17:59:15.724Z,37.67
2019-04-30T18:01:50.370Z,38.17
2019-04-30T18:04:22.040Z,48.67
2019-04-30T18:06:50.607Z,46.77
2019-04-30T18:09:20.308Z,38.60
2019-04-30T18:11:49.604Z,38.42
2019-04-30T18:14:18.794Z,35.83
2019-04-30T18:16:48.675Z,37.30
2019-04-30T18:19:25.193Z,33.13
2019-04-30T18:21:59.670Z,36.83
2019-04-30T18:24:49.239Z,33.13
2019-04-30T18:27:21.291Z,33.40
2019-04-30T18:29:50.985Z,38.23
2019-04-30T18:32:21.465Z,35.00
2019-04-30T18:34:50.273Z,37.33
2019-04-30T18:37:19.079Z,38.57
2019-04-30T18:39:48.037Z,39.20
2019-04-30T18:42:16.768Z,37.30
2019-04-30T18:44:45.516Z,37.97
2019-04-30T18:47:14.272Z,36.53
2019-04-30T18:49:42.984Z,40.33
2019-04-30T18:52:12.039Z,38.43
2019-04-30T18:54:42.761Z,39.33
2019-04-30T18:57:11.714Z,41.33
2019-04-30T18:59:40.441Z,44.53
2019-04-30T19:02:12.116Z,42.33
2019-04-30T19:04:41.007Z,42.70
2019-04-30T19:07:22.216Z,42.00
2019-04-30T19:10:01.649Z,48.77
2019-04-30T19:12:59.047Z,45.53
2019-04-30T19:16:14.825Z,53.52
2019-04-30T19:18:39.507Z,61.10
2019-04-30T19:21:09.084Z,57.05
2019-04-30T19:23:39.029Z,49.03
2019-04-30T19:26:07.922Z,49.27
2019-04-30T19:28:38.565Z,50.83
2019-04-30T19:31:11.329Z,48.87
2019-04-30T19:33:38.919Z,47.83
2019-04-30T19:36:09.792Z,83.03
2019-04-30T19:38:38.695Z,96.77
2019-04-30T19:41:09.064Z,86.80
2019-04-30T19:43:39.072Z,96.05
2019-04-30T19:46:09.182Z,84.72
2019-04-30T19:48:38.088Z,83.50
2019-04-30T19:51:08.717Z,69.53
2019-04-30T19:53:39.372Z,67.23
2019-04-30T19:56:08.341Z,64.53
2019-04-30T19:58:52.334Z,60.83
2019-04-30T20:01:09.388Z,59.87
2019-04-30T20:03:38.147Z,55.30
2019-04-30T20:06:08.920Z,55.43
2019-04-30T20:08:38.743Z,54.60
2019-04-30T20:11:07.857Z,54.60
2019-04-30T20:13:37.358Z,61.27
2019-04-30T20:16:09.695Z,63.57
2019-04-30T20:18:39.077Z,61.98
2019-04-30T20:21:11.900Z,60.27
2019-04-30T20:23:41.541Z,59.40
2019-04-30T20:26:10.352Z,58.83
2019-04-30T20:28:42.403Z,53.28
2019-04-30T20:31:11.613Z,47.57
2019-04-30T20:33:40.041Z,47.53
2019-04-30T20:36:09.282Z,45.53
2019-04-30T20:38:43.325Z,52.50
2019-04-30T20:41:12.457Z,45.43
2019-04-30T20:43:41.280Z,46.90
2019-04-30T20:46:10.068Z,49.73
2019-04-30T20:48:40.749Z,44.80
2019-04-30T20:51:09.677Z,51.70
2019-04-30T20:53:39.123Z,51.67
2019-04-30T20:56:09.317Z,48.67
2019-04-30T20:58:42.029Z,52.97
2019-04-30T21:01:09.587Z,50.63
2019-04-30T21:03:39.545Z,46.13
2019-04-30T21:06:08.875Z,46.33
2019-04-30T21:08:38.525Z,44.60
2019-04-30T21:11:09.282Z,48.47
2019-04-30T21:13:39.235Z,45.93
2019-04-30T21:16:09.846Z,50.95
2019-04-30T21:18:39.160Z,49.20
2019-04-30T21:21:07.999Z,49.50
2019-04-30T21:23:39.132Z,46.37
2019-04-30T21:26:08.561Z,47.43
2019-04-30T21:28:39.219Z,43.37
2019-04-30T21:31:26.075Z,44.60
2019-04-30T21:34:00.301Z,45.85
2019-04-30T21:36:29.020Z,45.30
2019-04-30T21:38:59.043Z,45.53
2019-04-30T21:41:29.662Z,45.80
2019-04-30T21:43:58.535Z,46.90
2019-04-30T21:46:29.119Z,44.87
2019-04-30T21:48:58.730Z,46.23
2019-04-30T21:51:27.624Z,45.93
2019-04-30T21:54:15.608Z,45.83
2019-04-30T21:56:44.330Z,43.25
2019-04-30T21:59:23.853Z,43.07
2019-04-30T22:01:43.657Z,44.63
2019-04-30T22:04:12.488Z,41.53
2019-04-30T22:06:41.541Z,49.13
2019-04-30T22:09:11.687Z,52.75
2019-04-30T22:11:40.407Z,51.20
2019-04-30T22:14:09.286Z,46.97
2019-04-30T22:16:39.712Z,47.13
2019-04-30T22:19:08.696Z,43.97
2019-04-30T22:21:39.465Z,45.13
2019-04-30T22:24:07.885Z,48.33
2019-04-30T22:26:36.597Z,48.60
2019-04-30T22:29:05.384Z,41.90
2019-04-30T22:31:34.121Z,52.73
2019-04-30T22:34:02.848Z,49.07
2019-04-30T22:36:39.386Z,46.80
2019-04-30T22:39:30.296Z,60.13
2019-04-30T22:42:29.791Z,48.33
2019-04-30T22:44:58.741Z,45.93
2019-04-30T22:47:27.718Z,46.20
2019-04-30T22:49:56.439Z,45.92
2019-04-30T22:52:25.325Z,49.53
2019-04-30T22:54:54.164Z,48.87
2019-04-30T22:57:22.929Z,50.10
2019-04-30T22:59:51.668Z,45.33
2019-04-30T23:02:30.303Z,43.73
2019-04-30T23:04:59.821Z,48.35
2019-04-30T23:07:28.641Z,44.63
2019-04-30T23:09:57.425Z,45.13
2019-04-30T23:12:26.592Z,42.97
2019-04-30T23:14:55.305Z,48.63
2019-04-30T23:17:24.684Z,51.53
2019-04-30T23:19:53.392Z,50.83
2019-04-30T23:22:22.194Z,58.67
2019-04-30T23:24:50.901Z,54.33
2019-04-30T23:27:19.639Z,50.10
2019-04-30T23:29:48.358Z,50.20
2019-04-30T23:32:17.148Z,52.87
2019-04-30T23:34:45.864Z,53.17
2019-04-30T23:37:14.601Z,50.47
2019-04-30T23:39:43.381Z,49.30
2019-04-30T23:42:12.105Z,49.63
2019-04-30T23:44:40.820Z,50.60
2019-04-30T23:47:09.567Z,50.52
2019-04-30T23:49:38.282Z,48.68
2019-04-30T23:52:06.997Z,48.57
2019-04-30T23:54:35.700Z,46.43
2019-04-30T23:57:04.514Z,42.62
2019-04-30T23:59:33.225Z,43.27
